sensor_id;sensor_type;location;lat;lon;timestamp;pressure;altitude;pressure_sealevel;temperature;humidity
12452;BME280;72521;48.924;12.204;2024-01-10T00:00:38;98318.88;;;-8.17;100.00
12452;BME280;72521;48.924;12.204;2024-01-10T00:05:42;98310.03;;;-8.05;100.00
12452;BME280;72521;48.924;12.204;2024-01-10T00:10:47;98305.22;;;-8.18;100.00
12452;BME280;72521;48.924;12.204;2024-01-10T00:15:52;98305.09;;;-8.26;100.00
12452;BME280;72521;48.924;12.204;2024-01-10T00:20:58;98304.56;;;-8.20;100.00
12452;BME280;72521;48.924;12.204;2024-01-10T00:26:02;98303.59;;;-8.19;100.00
12452;BME280;72521;48.924;12.204;2024-01-10T00:31:08;98301.44;;;-8.24;100.00
12452;BME280;72521;48.924;12.204;2024-01-10T00:36:12;98302.78;;;-8.47;100.00
12452;BME280;72521;48.924;12.204;2024-01-10T00:41:16;98309.38;;;-8.44;100.00
12452;BME280;72521;48.924;12.204;2024-01-10T00:46:22;98308.59;;;-8.64;100.00
12452;BME280;72521;48.924;12.204;2024-01-10T00:51:25;98309.69;;;-8.57;100.00
12452;BME280;72521;48.924;12.204;2024-01-10T00:56:30;98323.31;;;-8.56;100.00
12452;BME280;72521;48.924;12.204;2024-01-10T01:01:35;98323.84;;;-8.53;100.00
12452;BME280;72521;48.924;12.204;2024-01-10T01:06:40;98326.72;;;-8.66;100.00
12452;BME280;72521;48.924;12.204;2024-01-10T01:11:44;98329.66;;;-8.60;100.00
12452;BME280;72521;48.924;12.204;2024-01-10T01:16:49;98336.69;;;-8.63;100.00
12452;BME280;72521;48.924;12.204;2024-01-10T01:21:53;98338.88;;;-8.68;100.00
12452;BME280;72521;48.924;12.204;2024-01-10T01:26:57;98341.00;;;-8.73;100.00
12452;BME280;72521;48.924;12.204;2024-01-10T01:32:03;98344.94;;;-8.88;100.00
12452;BME280;72521;48.924;12.204;2024-01-10T01:37:07;98340.63;;;-8.87;100.00
12452;BME280;72521;48.924;12.204;2024-01-10T01:42:12;98345.22;;;-8.91;100.00
12452;BME280;72521;48.924;12.204;2024-01-10T01:47:17;98337.25;;;-8.88;100.00
12452;BME280;72521;48.924;12.204;2024-01-10T01:52:22;98349.25;;;-8.88;100.00
12452;BME280;72521;48.924;12.204;2024-01-10T01:57:26;98336.72;;;-8.91;100.00
12452;BME280;72521;48.924;12.204;2024-01-10T02:02:33;98341.97;;;-9.03;100.00
12452;BME280;72521;48.924;12.204;2024-01-10T02:07:38;98332.53;;;-9.02;100.00
12452;BME280;72521;48.924;12.204;2024-01-10T02:12:42;98335.38;;;-8.95;100.00
12452;BME280;72521;48.924;12.204;2024-01-10T02:17:48;98330.78;;;-9.02;100.00
12452;BME280;72521;48.924;12.204;2024-01-10T02:22:53;98335.38;;;-9.05;100.00
12452;BME280;72521;48.924;12.204;2024-01-10T02:27:58;98334.28;;;-9.12;100.00
12452;BME280;72521;48.924;12.204;2024-01-10T02:33:03;98337.00;;;-9.14;100.00
12452;BME280;72521;48.924;12.204;2024-01-10T02:38:07;98339.28;;;-9.01;100.00
12452;BME280;72521;48.924;12.204;2024-01-10T02:43:13;98332.38;;;-8.91;100.00
12452;BME280;72521;48.924;12.204;2024-01-10T02:48:17;98334.56;;;-8.96;100.00
12452;BME280;72521;48.924;12.204;2024-01-10T02:53:21;98323.63;;;-8.98;100.00
12452;BME280;72521;48.924;12.204;2024-01-10T02:58:27;98325.38;;;-8.89;100.00
12452;BME280;72521;48.924;12.204;2024-01-10T03:03:32;98329.31;;;-8.85;100.00
12452;BME280;72521;48.924;12.204;2024-01-10T03:08:36;98325.63;;;-8.92;100.00
12452;BME280;72521;48.924;12.204;2024-01-10T03:13:44;98330.38;;;-9.16;100.00
12452;BME280;72521;48.924;12.204;2024-01-10T03:18:49;98320.81;;;-9.14;100.00
12452;BME280;72521;48.924;12.204;2024-01-10T03:23:56;98323.50;;;-9.25;100.00
12452;BME280;72521;48.924;12.204;2024-01-10T03:29:02;98318.50;;;-9.17;100.00
12452;BME280;72521;48.924;12.204;2024-01-10T03:34:06;98314.06;;;-9.15;100.00
12452;BME280;72521;48.924;12.204;2024-01-10T03:39:10;98316.50;;;-9.23;100.00
12452;BME280;72521;48.924;12.204;2024-01-10T03:44:16;98330.50;;;-9.18;100.00
12452;BME280;72521;48.924;12.204;2024-01-10T03:49:20;98324.03;;;-9.12;100.00
12452;BME280;72521;48.924;12.204;2024-01-10T03:54:24;98316.34;;;-9.12;100.00
12452;BME280;72521;48.924;12.204;2024-01-10T03:59:29;98321.06;;;-9.17;100.00
12452;BME280;72521;48.924;12.204;2024-01-10T04:04:36;98326.44;;;-9.11;100.00
12452;BME280;72521;48.924;12.204;2024-01-10T04:09:40;98323.88;;;-9.20;100.00
12452;BME280;72521;48.924;12.204;2024-01-10T04:14:46;98319.69;;;-9.21;100.00
12452;BME280;72521;48.924;12.204;2024-01-10T04:19:50;98322.13;;;-9.29;100.00
12452;BME280;72521;48.924;12.204;2024-01-10T04:24:57;98328.75;;;-9.27;100.00
12452;BME280;72521;48.924;12.204;2024-01-10T04:30:03;98332.13;;;-9.26;100.00
12452;BME280;72521;48.924;12.204;2024-01-10T04:35:08;98330.88;;;-9.22;100.00
12452;BME280;72521;48.924;12.204;2024-01-10T04:40:13;98331.16;;;-9.35;100.00
12452;BME280;72521;48.924;12.204;2024-01-10T04:45:19;98336.69;;;-9.30;100.00
12452;BME280;72521;48.924;12.204;2024-01-10T04:50:23;98336.69;;;-9.20;100.00
12452;BME280;72521;48.924;12.204;2024-01-10T04:55:27;98347.38;;;-9.06;100.00
12452;BME280;72521;48.924;12.204;2024-01-10T05:00:33;98345.19;;;-9.10;100.00
12452;BME280;72521;48.924;12.204;2024-01-10T05:05:38;98343.47;;;-9.00;100.00
12452;BME280;72521;48.924;12.204;2024-01-10T05:10:42;98340.88;;;-9.00;100.00
12452;BME280;72521;48.924;12.204;2024-01-10T05:15:48;98346.56;;;-9.06;100.00
12452;BME280;72521;48.924;12.204;2024-01-10T05:20:52;98344.81;;;-9.15;100.00
12452;BME280;72521;48.924;12.204;2024-01-10T05:25:59;98351.69;;;-9.25;100.00
12452;BME280;72521;48.924;12.204;2024-01-10T05:31:06;98347.50;;;-9.17;100.00
12452;BME280;72521;48.924;12.204;2024-01-10T05:36:10;98348.16;;;-9.34;100.00
12452;BME280;72521;48.924;12.204;2024-01-10T05:41:15;98354.75;;;-9.22;100.00
12452;BME280;72521;48.924;12.204;2024-01-10T05:46:21;98356.09;;;-9.37;100.00
12452;BME280;72521;48.924;12.204;2024-01-10T05:51:25;98360.03;;;-9.33;100.00
12452;BME280;72521;48.924;12.204;2024-01-10T05:56:29;98362.06;;;-9.27;100.00
12452;BME280;72521;48.924;12.204;2024-01-10T06:01:34;98357.31;;;-9.31;100.00
12452;BME280;72521;48.924;12.204;2024-01-10T06:06:39;98356.78;;;-9.35;100.00
12452;BME280;72521;48.924;12.204;2024-01-10T06:11:43;98352.97;;;-9.50;100.00
12452;BME280;72521;48.924;12.204;2024-01-10T06:16:49;98365.38;;;-9.55;100.00
12452;BME280;72521;48.924;12.204;2024-01-10T06:21:56;98355.13;;;-9.55;100.00
12452;BME280;72521;48.924;12.204;2024-01-10T06:27:00;98354.47;;;-9.48;100.00
12452;BME280;72521;48.924;12.204;2024-01-10T06:32:06;98372.25;;;-9.56;100.00
12452;BME280;72521;48.924;12.204;2024-01-10T06:37:11;98374.66;;;-9.54;100.00
12452;BME280;72521;48.924;12.204;2024-01-10T06:42:15;98377.56;;;-9.68;100.00
12452;BME280;72521;48.924;12.204;2024-01-10T06:47:21;98379.63;;;-9.62;100.00
12452;BME280;72521;48.924;12.204;2024-01-10T06:52:25;98373.81;;;-9.74;100.00
12452;BME280;72521;48.924;12.204;2024-01-10T06:57:29;98382.00;;;-9.70;100.00
12452;BME280;72521;48.924;12.204;2024-01-10T07:02:35;98393.88;;;-9.69;100.00
12452;BME280;72521;48.924;12.204;2024-01-10T07:07:39;98391.34;;;-9.60;100.00
12452;BME280;72521;48.924;12.204;2024-01-10T07:12:43;98390.97;;;-9.55;100.00
12452;BME280;72521;48.924;12.204;2024-01-10T07:17:49;98398.25;;;-9.51;100.00
12452;BME280;72521;48.924;12.204;2024-01-10T07:22:53;98387.84;;;-9.59;100.00
12452;BME280;72521;48.924;12.204;2024-01-10T07:27:57;98391.53;;;-9.52;100.00
12452;BME280;72521;48.924;12.204;2024-01-10T07:33:03;98386.81;;;-9.47;100.00
12452;BME280;72521;48.924;12.204;2024-01-10T07:38:07;98391.72;;;-9.34;100.00
12452;BME280;72521;48.924;12.204;2024-01-10T07:43:12;98391.59;;;-9.32;100.00
12452;BME280;72521;48.924;12.204;2024-01-10T07:48:17;98397.97;;;-9.08;100.00
12452;BME280;72521;48.924;12.204;2024-01-10T07:53:23;98411.47;;;-8.77;100.00
12452;BME280;72521;48.924;12.204;2024-01-10T07:58:29;98407.97;;;-7.91;100.00
12452;BME280;72521;48.924;12.204;2024-01-10T08:03:35;98408.16;;;-7.20;100.00
12452;BME280;72521;48.924;12.204;2024-01-10T08:08:39;98408.16;;;-6.57;100.00
12452;BME280;72521;48.924;12.204;2024-01-10T08:13:43;98413.47;;;-5.89;100.00
12452;BME280;72521;48.924;12.204;2024-01-10T08:18:49;98411.66;;;-5.29;100.00
12452;BME280;72521;48.924;12.204;2024-01-10T08:23:53;98419.88;;;-5.17;100.00
12452;BME280;72521;48.924;12.204;2024-01-10T08:28:57;98433.16;;;-5.46;100.00
12452;BME280;72521;48.924;12.204;2024-01-10T08:34:03;98444.19;;;-5.28;100.00
12452;BME280;72521;48.924;12.204;2024-01-10T08:39:07;98445.66;;;-5.25;100.00
12452;BME280;72521;48.924;12.204;2024-01-10T08:44:13;98439.56;;;-5.16;100.00
12452;BME280;72521;48.924;12.204;2024-01-10T08:49:20;98444.63;;;-4.98;100.00
12452;BME280;72521;48.924;12.204;2024-01-10T08:54:24;98442.25;;;-4.83;100.00
12452;BME280;72521;48.924;12.204;2024-01-10T08:59:29;98464.25;;;-4.31;100.00
12452;BME280;72521;48.924;12.204;2024-01-10T09:04:35;98454.72;;;-3.74;100.00
12452;BME280;72521;48.924;12.204;2024-01-10T09:09:40;98450.22;;;-3.96;100.00
12452;BME280;72521;48.924;12.204;2024-01-10T09:14:45;98457.09;;;-3.64;100.00
12452;BME280;72521;48.924;12.204;2024-01-10T09:19:50;98458.34;;;-3.36;100.00
12452;BME280;72521;48.924;12.204;2024-01-10T09:24:54;98457.22;;;-2.40;100.00
12452;BME280;72521;48.924;12.204;2024-01-10T09:30:02;98448.50;;;-3.01;100.00
12452;BME280;72521;48.924;12.204;2024-01-10T09:35:11;98447.13;;;-2.58;100.00
12452;BME280;72521;48.924;12.204;2024-01-10T09:40:16;98446.97;;;-2.34;100.00
12452;BME280;72521;48.924;12.204;2024-01-10T09:45:24;98450.41;;;-1.96;100.00
12452;BME280;72521;48.924;12.204;2024-01-10T09:50:32;98444.91;;;-1.34;100.00
12452;BME280;72521;48.924;12.204;2024-01-10T09:55:37;98444.94;;;-0.68;100.00
12452;BME280;72521;48.924;12.204;2024-01-10T10:00:42;98439.53;;;-1.62;100.00
12452;BME280;72521;48.924;12.204;2024-01-10T10:05:47;98440.88;;;-2.64;100.00
12452;BME280;72521;48.924;12.204;2024-01-10T10:10:52;98436.94;;;-1.32;100.00
12452;BME280;72521;48.924;12.204;2024-01-10T10:15:59;98436.09;;;-1.03;100.00
12452;BME280;72521;48.924;12.204;2024-01-10T10:21:10;98435.47;;;-0.55;100.00
12452;BME280;72521;48.924;12.204;2024-01-10T10:26:16;98436.38;;;0.57;100.00
12452;BME280;72521;48.924;12.204;2024-01-10T10:31:24;98439.09;;;1.25;100.00
12452;BME280;72521;48.924;12.204;2024-01-10T10:36:30;98434.66;;;1.25;100.00
12452;BME280;72521;48.924;12.204;2024-01-10T10:41:35;98429.91;;;1.48;100.00
12452;BME280;72521;48.924;12.204;2024-01-10T10:46:41;98431.47;;;2.75;100.00
12452;BME280;72521;48.924;12.204;2024-01-10T10:51:51;98443.34;;;3.98;100.00
12452;BME280;72521;48.924;12.204;2024-01-10T10:56:57;98428.97;;;3.06;100.00
12452;BME280;72521;48.924;12.204;2024-01-10T11:02:02;98434.84;;;2.88;100.00
12452;BME280;72521;48.924;12.204;2024-01-10T11:07:08;98427.41;;;5.04;100.00
12452;BME280;72521;48.924;12.204;2024-01-10T11:12:27;98418.31;;;3.46;100.00
12452;BME280;72521;48.924;12.204;2024-01-10T11:17:57;98422.53;;;3.02;100.00
12452;BME280;72521;48.924;12.204;2024-01-10T11:23:39;98422.13;;;3.81;100.00
12452;BME280;72521;48.924;12.204;2024-01-10T11:28:45;98424.56;;;4.26;100.00
12452;BME280;72521;48.924;12.204;2024-01-10T11:33:49;98422.03;;;1.35;100.00
12452;BME280;72521;48.924;12.204;2024-01-10T11:38:58;98406.75;;;-0.47;100.00
12452;BME280;72521;48.924;12.204;2024-01-10T11:44:37;98404.09;;;-1.69;100.00
12452;BME280;72521;48.924;12.204;2024-01-10T11:49:57;98410.97;;;-1.91;100.00
12452;BME280;72521;48.924;12.204;2024-01-10T11:55:03;98406.41;;;-2.04;100.00
12452;BME280;72521;48.924;12.204;2024-01-10T12:00:11;98403.72;;;-1.96;100.00
12452;BME280;72521;48.924;12.204;2024-01-10T12:05:15;98400.16;;;-1.95;100.00
12452;BME280;72521;48.924;12.204;2024-01-10T12:10:21;98399.69;;;-1.98;100.00
12452;BME280;72521;48.924;12.204;2024-01-10T12:15:29;98399.94;;;-2.08;100.00
12452;BME280;72521;48.924;12.204;2024-01-10T12:20:33;98391.59;;;-2.18;100.00
12452;BME280;72521;48.924;12.204;2024-01-10T12:25:40;98392.09;;;-2.00;100.00
12452;BME280;72521;48.924;12.204;2024-01-10T12:30:44;98402.81;;;-2.03;100.00
12452;BME280;72521;48.924;12.204;2024-01-10T12:36:03;98399.88;;;-2.00;100.00
12452;BME280;72521;48.924;12.204;2024-01-10T12:41:09;98391.00;;;-2.05;100.00
12452;BME280;72521;48.924;12.204;2024-01-10T12:46:14;98385.31;;;-1.86;100.00
12452;BME280;72521;48.924;12.204;2024-01-10T12:51:18;98390.50;;;-1.71;100.00
12452;BME280;72521;48.924;12.204;2024-01-10T12:56:27;98387.47;;;-1.60;100.00
12452;BME280;72521;48.924;12.204;2024-01-10T13:01:31;98384.06;;;-1.46;100.00
12452;BME280;72521;48.924;12.204;2024-01-10T13:06:36;98383.44;;;-1.77;100.00
12452;BME280;72521;48.924;12.204;2024-01-10T13:11:41;98381.66;;;-1.62;100.00
12452;BME280;72521;48.924;12.204;2024-01-10T13:16:46;98388.16;;;-1.81;100.00
12452;BME280;72521;48.924;12.204;2024-01-10T13:22:01;98374.94;;;-1.71;100.00
12452;BME280;72521;48.924;12.204;2024-01-10T13:27:12;98386.84;;;-1.77;100.00
12452;BME280;72521;48.924;12.204;2024-01-10T13:32:20;98382.09;;;-1.88;100.00
12452;BME280;72521;48.924;12.204;2024-01-10T13:37:24;98386.94;;;-1.70;100.00
12452;BME280;72521;48.924;12.204;2024-01-10T13:42:33;98387.94;;;-1.57;100.00
12452;BME280;72521;48.924;12.204;2024-01-10T13:47:37;98390.59;;;-1.50;100.00
12452;BME280;72521;48.924;12.204;2024-01-10T13:52:42;98392.22;;;-1.49;100.00
12452;BME280;72521;48.924;12.204;2024-01-10T13:57:48;98393.19;;;-1.50;100.00
12452;BME280;72521;48.924;12.204;2024-01-10T14:02:52;98386.66;;;-1.46;100.00
12452;BME280;72521;48.924;12.204;2024-01-10T14:08:01;98391.09;;;-1.10;100.00
12452;BME280;72521;48.924;12.204;2024-01-10T14:13:07;98386.06;;;-0.76;100.00
12452;BME280;72521;48.924;12.204;2024-01-10T14:18:11;98383.78;;;-0.43;100.00
12452;BME280;72521;48.924;12.204;2024-01-10T14:23:15;98383.97;;;-0.66;100.00
12452;BME280;72521;48.924;12.204;2024-01-10T14:28:23;98381.56;;;-1.39;100.00
12452;BME280;72521;48.924;12.204;2024-01-10T14:33:27;98387.66;;;-1.47;100.00
12452;BME280;72521;48.924;12.204;2024-01-10T14:38:31;98395.16;;;-2.19;100.00
12452;BME280;72521;48.924;12.204;2024-01-10T14:43:37;98393.19;;;-2.54;100.00
12452;BME280;72521;48.924;12.204;2024-01-10T14:48:42;98396.50;;;-2.60;100.00
12452;BME280;72521;48.924;12.204;2024-01-10T14:53:46;98400.13;;;-2.70;100.00
12452;BME280;72521;48.924;12.204;2024-01-10T14:58:52;98401.16;;;-2.79;100.00
12452;BME280;72521;48.924;12.204;2024-01-10T15:03:56;98405.75;;;-2.97;100.00
12452;BME280;72521;48.924;12.204;2024-01-10T15:09:01;98405.22;;;-3.15;100.00
12452;BME280;72521;48.924;12.204;2024-01-10T15:14:08;98406.22;;;-3.24;100.00
12452;BME280;72521;48.924;12.204;2024-01-10T15:19:12;98416.13;;;-3.36;100.00
12452;BME280;72521;48.924;12.204;2024-01-10T15:24:16;98414.75;;;-3.55;100.00
12452;BME280;72521;48.924;12.204;2024-01-10T15:29:25;98413.97;;;-3.63;100.00
12452;BME280;72521;48.924;12.204;2024-01-10T15:34:30;98407.56;;;-3.76;100.00
12452;BME280;72521;48.924;12.204;2024-01-10T15:39:34;98411.75;;;-3.83;100.00
12452;BME280;72521;48.924;12.204;2024-01-10T15:44:41;98406.28;;;-3.96;100.00
12452;BME280;72521;48.924;12.204;2024-01-10T15:49:45;98402.59;;;-4.09;100.00
12452;BME280;72521;48.924;12.204;2024-01-10T15:54:50;98405.50;;;-4.21;100.00
12452;BME280;72521;48.924;12.204;2024-01-10T15:59:58;98400.84;;;-4.25;100.00
12452;BME280;72521;48.924;12.204;2024-01-10T16:05:02;98408.41;;;-4.32;100.00
12452;BME280;72521;48.924;12.204;2024-01-10T16:10:07;98404.22;;;-4.33;100.00
12452;BME280;72521;48.924;12.204;2024-01-10T16:15:13;98411.16;;;-4.50;100.00
12452;BME280;72521;48.924;12.204;2024-01-10T16:20:18;98412.41;;;-4.70;100.00
12452;BME280;72521;48.924;12.204;2024-01-10T16:25:22;98402.75;;;-4.60;100.00
12452;BME280;72521;48.924;12.204;2024-01-10T16:30:27;98414.69;;;-4.75;100.00
12452;BME280;72521;48.924;12.204;2024-01-10T16:35:31;98412.53;;;-4.96;100.00
12452;BME280;72521;48.924;12.204;2024-01-10T16:40:35;98416.50;;;-5.17;100.00
12452;BME280;72521;48.924;12.204;2024-01-10T16:45:41;98422.16;;;-5.22;100.00
12452;BME280;72521;48.924;12.204;2024-01-10T16:50:45;98422.28;;;-5.32;100.00
12452;BME280;72521;48.924;12.204;2024-01-10T16:55:50;98421.69;;;-5.51;100.00
12452;BME280;72521;48.924;12.204;2024-01-10T17:00:55;98432.00;;;-5.51;100.00
12452;BME280;72521;48.924;12.204;2024-01-10T17:06:00;98432.13;;;-5.61;100.00
12452;BME280;72521;48.924;12.204;2024-01-10T17:11:04;98432.09;;;-5.69;100.00
12452;BME280;72521;48.924;12.204;2024-01-10T17:16:10;98434.91;;;-5.80;100.00
12452;BME280;72521;48.924;12.204;2024-01-10T17:21:14;98435.31;;;-5.67;100.00
12452;BME280;72521;48.924;12.204;2024-01-10T17:26:18;98437.59;;;-5.30;100.00
12452;BME280;72521;48.924;12.204;2024-01-10T17:31:24;98441.53;;;-5.10;100.00
12452;BME280;72521;48.924;12.204;2024-01-10T17:36:34;98435.09;;;-4.98;100.00
12452;BME280;72521;48.924;12.204;2024-01-10T17:41:39;98439.78;;;-5.01;100.00
12452;BME280;72521;48.924;12.204;2024-01-10T17:46:45;98434.25;;;-5.14;100.00
12452;BME280;72521;48.924;12.204;2024-01-10T17:51:50;98439.38;;;-5.22;100.00
12452;BME280;72521;48.924;12.204;2024-01-10T17:56:54;98443.03;;;-5.33;100.00
12452;BME280;72521;48.924;12.204;2024-01-10T18:01:59;98441.69;;;-5.45;100.00
12452;BME280;72521;48.924;12.204;2024-01-10T18:07:04;98440.41;;;-5.49;100.00
12452;BME280;72521;48.924;12.204;2024-01-10T18:12:11;98450.38;;;-5.46;100.00
12452;BME280;72521;48.924;12.204;2024-01-10T18:17:17;98445.84;;;-5.52;100.00
12452;BME280;72521;48.924;12.204;2024-01-10T18:22:22;98458.09;;;-5.54;100.00
12452;BME280;72521;48.924;12.204;2024-01-10T18:27:26;98453.09;;;-5.82;100.00
12452;BME280;72521;48.924;12.204;2024-01-10T18:32:32;98467.59;;;-5.89;100.00
12452;BME280;72521;48.924;12.204;2024-01-10T18:37:37;98459.38;;;-6.10;100.00
12452;BME280;72521;48.924;12.204;2024-01-10T18:42:41;98466.56;;;-6.14;100.00
12452;BME280;72521;48.924;12.204;2024-01-10T18:47:47;98472.63;;;-6.23;100.00
12452;BME280;72521;48.924;12.204;2024-01-10T18:52:51;98471.97;;;-6.43;100.00
12452;BME280;72521;48.924;12.204;2024-01-10T18:57:58;98471.09;;;-6.33;100.00
12452;BME280;72521;48.924;12.204;2024-01-10T19:03:05;98466.69;;;-6.41;100.00
12452;BME280;72521;48.924;12.204;2024-01-10T19:08:09;98463.88;;;-6.48;100.00
12452;BME280;72521;48.924;12.204;2024-01-10T19:13:13;98471.75;;;-6.67;100.00
12452;BME280;72521;48.924;12.204;2024-01-10T19:18:19;98463.50;;;-6.70;100.00
12452;BME280;72521;48.924;12.204;2024-01-10T19:23:23;98466.38;;;-6.73;100.00
12452;BME280;72521;48.924;12.204;2024-01-10T19:28:28;98468.09;;;-6.92;100.00
12452;BME280;72521;48.924;12.204;2024-01-10T19:33:33;98469.66;;;-6.81;100.00
12452;BME280;72521;48.924;12.204;2024-01-10T19:38:38;98477.59;;;-6.92;100.00
12452;BME280;72521;48.924;12.204;2024-01-10T19:43:43;98493.19;;;-6.94;100.00
12452;BME280;72521;48.924;12.204;2024-01-10T19:48:51;98486.28;;;-6.93;100.00
12452;BME280;72521;48.924;12.204;2024-01-10T19:53:55;98483.94;;;-6.87;100.00
12452;BME280;72521;48.924;12.204;2024-01-10T19:59:00;98487.22;;;-6.94;100.00
12452;BME280;72521;48.924;12.204;2024-01-10T20:04:06;98483.81;;;-7.13;100.00
12452;BME280;72521;48.924;12.204;2024-01-10T20:09:10;98487.00;;;-7.11;100.00
12452;BME280;72521;48.924;12.204;2024-01-10T20:14:17;98492.06;;;-7.19;100.00
12452;BME280;72521;48.924;12.204;2024-01-10T20:19:23;98496.16;;;-7.26;100.00
12452;BME280;72521;48.924;12.204;2024-01-10T20:24:27;98487.22;;;-7.22;100.00
12452;BME280;72521;48.924;12.204;2024-01-10T20:29:31;98494.44;;;-7.35;100.00
12452;BME280;72521;48.924;12.204;2024-01-10T20:34:37;98489.66;;;-7.30;100.00
12452;BME280;72521;48.924;12.204;2024-01-10T20:39:41;98490.78;;;-7.32;100.00
12452;BME280;72521;48.924;12.204;2024-01-10T20:44:46;98493.00;;;-7.20;100.00
12452;BME280;72521;48.924;12.204;2024-01-10T20:49:53;98500.97;;;-7.40;100.00
12452;BME280;72521;48.924;12.204;2024-01-10T20:54:58;98505.06;;;-7.57;100.00
12452;BME280;72521;48.924;12.204;2024-01-10T21:00:04;98509.13;;;-7.64;100.00
12452;BME280;72521;48.924;12.204;2024-01-10T21:05:10;98511.16;;;-7.68;100.00
12452;BME280;72521;48.924;12.204;2024-01-10T21:10:15;98508.56;;;-7.58;100.00
12452;BME280;72521;48.924;12.204;2024-01-10T21:15:19;98513.38;;;-7.82;100.00
12452;BME280;72521;48.924;12.204;2024-01-10T21:20:25;98511.03;;;-7.66;100.00
12452;BME280;72521;48.924;12.204;2024-01-10T21:25:30;98515.66;;;-7.79;100.00
12452;BME280;72521;48.924;12.204;2024-01-10T21:30:34;98507.16;;;-7.80;100.00
12452;BME280;72521;48.924;12.204;2024-01-10T21:35:40;98505.25;;;-7.88;100.00
12452;BME280;72521;48.924;12.204;2024-01-10T21:40:45;98497.41;;;-7.86;100.00
12452;BME280;72521;48.924;12.204;2024-01-10T21:45:49;98496.09;;;-8.00;100.00
12452;BME280;72521;48.924;12.204;2024-01-10T21:50:55;98505.81;;;-7.94;100.00
12452;BME280;72521;48.924;12.204;2024-01-10T21:55:59;98500.81;;;-8.05;100.00
12452;BME280;72521;48.924;12.204;2024-01-10T22:01:03;98503.00;;;-8.10;100.00
12452;BME280;72521;48.924;12.204;2024-01-10T22:06:09;98498.13;;;-8.13;100.00
12452;BME280;72521;48.924;12.204;2024-01-10T22:11:14;98503.53;;;-8.16;100.00
12452;BME280;72521;48.924;12.204;2024-01-10T22:16:21;98502.34;;;-8.31;100.00
12452;BME280;72521;48.924;12.204;2024-01-10T22:21:27;98496.78;;;-8.27;100.00
12452;BME280;72521;48.924;12.204;2024-01-10T22:26:31;98501.00;;;-8.35;100.00
12452;BME280;72521;48.924;12.204;2024-01-10T22:31:35;98501.94;;;-8.27;100.00
12452;BME280;72521;48.924;12.204;2024-01-10T22:36:41;98509.75;;;-8.28;100.00
12452;BME280;72521;48.924;12.204;2024-01-10T22:41:46;98504.53;;;-8.46;100.00
12452;BME280;72521;48.924;12.204;2024-01-10T22:46:52;98503.53;;;-8.54;100.00
12452;BME280;72521;48.924;12.204;2024-01-10T22:51:57;98513.28;;;-8.48;100.00
12452;BME280;72521;48.924;12.204;2024-01-10T22:57:02;98504.34;;;-8.44;100.00
12452;BME280;72521;48.924;12.204;2024-01-10T23:02:06;98506.13;;;-8.35;100.00
12452;BME280;72521;48.924;12.204;2024-01-10T23:07:11;98509.50;;;-8.44;100.00
12452;BME280;72521;48.924;12.204;2024-01-10T23:12:15;98511.13;;;-8.43;100.00
12452;BME280;72521;48.924;12.204;2024-01-10T23:17:20;98505.47;;;-8.37;100.00
12452;BME280;72521;48.924;12.204;2024-01-10T23:22:26;98503.16;;;-8.40;100.00
12452;BME280;72521;48.924;12.204;2024-01-10T23:27:30;98503.72;;;-8.37;100.00
12452;BME280;72521;48.924;12.204;2024-01-10T23:32:34;98500.97;;;-8.45;100.00
12452;BME280;72521;48.924;12.204;2024-01-10T23:37:41;98503.41;;;-8.43;100.00
12452;BME280;72521;48.924;12.204;2024-01-10T23:42:45;98496.53;;;-8.43;100.00
12452;BME280;72521;48.924;12.204;2024-01-10T23:47:49;98488.03;;;-8.53;100.00
12452;BME280;72521;48.924;12.204;2024-01-10T23:52:59;98487.88;;;-8.51;100.00
12452;BME280;72521;48.924;12.204;2024-01-10T23:58:04;98485.59;;;-8.54;100.00
